sensor_id;sensor_type;location;lat;lon;timestamp;P1;durP1;ratioP1;P2;durP2;ratioP2
25237;SDS011;13185;50.872;5.306;2024-02-04T00:01:19;9.65;;;6.18;;
25237;SDS011;13185;50.872;5.306;2024-02-04T00:03:45;9.98;;;7.05;;
25237;SDS011;13185;50.872;5.306;2024-02-04T00:06:10;7.05;;;5.80;;
25237;SDS011;13185;50.872;5.306;2024-02-04T00:08:36;8.07;;;6.75;;
25237;SDS011;13185;50.872;5.306;2024-02-04T00:11:02;8.52;;;5.93;;
25237;SDS011;13185;50.872;5.306;2024-02-04T00:13:29;7.82;;;5.80;;
25237;SDS011;13185;50.872;5.306;2024-02-04T00:15:55;8.40;;;6.22;;
25237;SDS011;13185;50.872;5.306;2024-02-04T00:18:23;9.60;;;6.28;;
25237;SDS011;13185;50.872;5.306;2024-02-04T00:20:49;8.45;;;5.65;;
25237;SDS011;13185;50.872;5.306;2024-02-04T00:23:15;8.45;;;5.82;;
25237;SDS011;13185;50.872;5.306;2024-02-04T00:25:41;7.63;;;5.93;;
25237;SDS011;13185;50.872;5.306;2024-02-04T00:28:07;7.65;;;5.88;;
25237;SDS011;13185;50.872;5.306;2024-02-04T00:30:33;8.68;;;5.50;;
25237;SDS011;13185;50.872;5.306;2024-02-04T00:32:58;7.40;;;5.68;;
25237;SDS011;13185;50.872;5.306;2024-02-04T00:35:28;6.22;;;5.60;;
25237;SDS011;13185;50.872;5.306;2024-02-04T00:37:54;6.05;;;5.10;;
25237;SDS011;13185;50.872;5.306;2024-02-04T00:40:20;6.05;;;5.45;;
25237;SDS011;13185;50.872;5.306;2024-02-04T00:42:45;7.07;;;5.28;;
25237;SDS011;13185;50.872;5.306;2024-02-04T00:45:11;8.65;;;5.20;;
25237;SDS011;13185;50.872;5.306;2024-02-04T00:47:36;5.47;;;4.97;;
25237;SDS011;13185;50.872;5.306;2024-02-04T00:50:02;6.55;;;5.38;;
25237;SDS011;13185;50.872;5.306;2024-02-04T00:52:28;8.02;;;5.47;;
25237;SDS011;13185;50.872;5.306;2024-02-04T00:54:53;5.47;;;4.70;;
25237;SDS011;13185;50.872;5.306;2024-02-04T00:57:19;7.43;;;4.90;;
25237;SDS011;13185;50.872;5.306;2024-02-04T00:59:45;8.75;;;5.68;;
25237;SDS011;13185;50.872;5.306;2024-02-04T01:02:10;5.18;;;4.65;;
25237;SDS011;13185;50.872;5.306;2024-02-04T01:04:36;6.75;;;5.95;;
25237;SDS011;13185;50.872;5.306;2024-02-04T01:07:01;9.60;;;5.50;;
25237;SDS011;13185;50.872;5.306;2024-02-04T01:09:27;7.25;;;5.45;;
25237;SDS011;13185;50.872;5.306;2024-02-04T01:11:53;6.13;;;5.53;;
25237;SDS011;13185;50.872;5.306;2024-02-04T01:14:18;5.68;;;5.00;;
25237;SDS011;13185;50.872;5.306;2024-02-04T01:16:44;6.30;;;5.38;;
25237;SDS011;13185;50.872;5.306;2024-02-04T01:19:10;7.82;;;5.63;;
25237;SDS011;13185;50.872;5.306;2024-02-04T01:21:35;8.23;;;5.78;;
25237;SDS011;13185;50.872;5.306;2024-02-04T01:24:01;6.82;;;5.40;;
25237;SDS011;13185;50.872;5.306;2024-02-04T01:26:26;5.97;;;5.38;;
25237;SDS011;13185;50.872;5.306;2024-02-04T01:28:52;9.00;;;5.25;;
25237;SDS011;13185;50.872;5.306;2024-02-04T01:31:17;7.53;;;5.15;;
25237;SDS011;13185;50.872;5.306;2024-02-04T01:33:43;7.03;;;5.47;;
25237;SDS011;13185;50.872;5.306;2024-02-04T01:36:08;8.02;;;5.05;;
25237;SDS011;13185;50.872;5.306;2024-02-04T01:38:34;5.97;;;4.63;;
25237;SDS011;13185;50.872;5.306;2024-02-04T01:40:59;6.55;;;4.78;;
25237;SDS011;13185;50.872;5.306;2024-02-04T01:43:25;7.35;;;4.55;;
25237;SDS011;13185;50.872;5.306;2024-02-04T01:45:51;5.30;;;4.53;;
25237;SDS011;13185;50.872;5.306;2024-02-04T01:48:19;6.63;;;5.03;;
25237;SDS011;13185;50.872;5.306;2024-02-04T01:50:46;5.40;;;3.95;;
25237;SDS011;13185;50.872;5.306;2024-02-04T01:53:15;6.72;;;4.32;;
25237;SDS011;13185;50.872;5.306;2024-02-04T01:55:40;5.07;;;4.00;;
25237;SDS011;13185;50.872;5.306;2024-02-04T01:58:06;5.05;;;3.80;;
25237;SDS011;13185;50.872;5.306;2024-02-04T02:00:32;5.05;;;3.50;;
25237;SDS011;13185;50.872;5.306;2024-02-04T02:02:58;4.82;;;3.70;;
25237;SDS011;13185;50.872;5.306;2024-02-04T02:05:24;4.07;;;3.35;;
25237;SDS011;13185;50.872;5.306;2024-02-04T02:07:51;8.35;;;3.58;;
25237;SDS011;13185;50.872;5.306;2024-02-04T02:10:17;4.28;;;3.40;;
25237;SDS011;13185;50.872;5.306;2024-02-04T02:12:50;4.10;;;3.50;;
25237;SDS011;13185;50.872;5.306;2024-02-04T02:15:21;4.80;;;3.20;;
25237;SDS011;13185;50.872;5.306;2024-02-04T02:18:04;3.75;;;3.05;;
25237;SDS011;13185;50.872;5.306;2024-02-04T02:23:30;4.88;;;2.88;;
25237;SDS011;13185;50.872;5.306;2024-02-04T02:25:59;3.38;;;3.03;;
25237;SDS011;13185;50.872;5.306;2024-02-04T02:28:25;5.30;;;3.35;;
25237;SDS011;13185;50.872;5.306;2024-02-04T02:30:51;7.95;;;3.60;;
25237;SDS011;13185;50.872;5.306;2024-02-04T02:33:16;5.70;;;3.40;;
25237;SDS011;13185;50.872;5.306;2024-02-04T02:35:43;3.33;;;3.03;;
25237;SDS011;13185;50.872;5.306;2024-02-04T02:38:20;4.22;;;3.22;;
25237;SDS011;13185;50.872;5.306;2024-02-04T02:40:54;4.20;;;3.30;;
25237;SDS011;13185;50.872;5.306;2024-02-04T02:43:23;3.38;;;3.03;;
25237;SDS011;13185;50.872;5.306;2024-02-04T02:45:49;4.47;;;3.22;;
25237;SDS011;13185;50.872;5.306;2024-02-04T02:48:15;4.40;;;3.30;;
25237;SDS011;13185;50.872;5.306;2024-02-04T02:50:41;4.13;;;2.85;;
25237;SDS011;13185;50.872;5.306;2024-02-04T02:53:06;4.20;;;3.20;;
25237;SDS011;13185;50.872;5.306;2024-02-04T02:55:32;5.10;;;3.08;;
25237;SDS011;13185;50.872;5.306;2024-02-04T02:57:58;4.47;;;3.03;;
25237;SDS011;13185;50.872;5.306;2024-02-04T03:00:23;3.22;;;2.92;;
25237;SDS011;13185;50.872;5.306;2024-02-04T03:02:49;5.00;;;3.03;;
25237;SDS011;13185;50.872;5.306;2024-02-04T03:05:17;3.70;;;3.25;;
25237;SDS011;13185;50.872;5.306;2024-02-04T03:07:44;5.05;;;3.50;;
25237;SDS011;13185;50.872;5.306;2024-02-04T03:10:10;4.63;;;3.15;;
25237;SDS011;13185;50.872;5.306;2024-02-04T03:12:36;3.85;;;3.15;;
25237;SDS011;13185;50.872;5.306;2024-02-04T03:15:01;3.83;;;2.95;;
25237;SDS011;13185;50.872;5.306;2024-02-04T03:17:27;4.60;;;3.92;;
25237;SDS011;13185;50.872;5.306;2024-02-04T03:19:53;4.13;;;3.72;;
25237;SDS011;13185;50.872;5.306;2024-02-04T03:22:22;4.65;;;3.53;;
25237;SDS011;13185;50.872;5.306;2024-02-04T03:24:48;5.75;;;3.25;;
25237;SDS011;13185;50.872;5.306;2024-02-04T03:27:15;6.40;;;3.85;;
25237;SDS011;13185;50.872;5.306;2024-02-04T03:29:43;3.88;;;3.38;;
25237;SDS011;13185;50.872;5.306;2024-02-04T03:32:12;5.30;;;3.80;;
25237;SDS011;13185;50.872;5.306;2024-02-04T03:34:40;6.57;;;3.80;;
25237;SDS011;13185;50.872;5.306;2024-02-04T03:37:07;4.50;;;3.60;;
25237;SDS011;13185;50.872;5.306;2024-02-04T03:39:32;5.68;;;3.80;;
25237;SDS011;13185;50.872;5.306;2024-02-04T03:41:58;5.07;;;4.57;;
25237;SDS011;13185;50.872;5.306;2024-02-04T03:44:24;4.55;;;3.72;;
25237;SDS011;13185;50.872;5.306;2024-02-04T03:46:50;4.10;;;3.55;;
25237;SDS011;13185;50.872;5.306;2024-02-04T03:49:16;4.10;;;3.63;;
25237;SDS011;13185;50.872;5.306;2024-02-04T03:51:42;4.28;;;3.33;;
25237;SDS011;13185;50.872;5.306;2024-02-04T03:54:08;5.20;;;3.95;;
25237;SDS011;13185;50.872;5.306;2024-02-04T03:56:33;5.68;;;3.50;;
25237;SDS011;13185;50.872;5.306;2024-02-04T03:58:59;6.25;;;3.78;;
25237;SDS011;13185;50.872;5.306;2024-02-04T04:01:25;4.85;;;3.13;;
25237;SDS011;13185;50.872;5.306;2024-02-04T04:03:50;4.47;;;3.28;;
25237;SDS011;13185;50.872;5.306;2024-02-04T04:06:16;4.40;;;3.60;;
25237;SDS011;13185;50.872;5.306;2024-02-04T04:08:41;4.13;;;3.25;;
25237;SDS011;13185;50.872;5.306;2024-02-04T04:11:08;3.40;;;2.55;;
25237;SDS011;13185;50.872;5.306;2024-02-04T04:13:34;5.55;;;3.10;;
25237;SDS011;13185;50.872;5.306;2024-02-04T04:16:00;4.85;;;2.80;;
25237;SDS011;13185;50.872;5.306;2024-02-04T04:18:27;3.78;;;2.67;;
25237;SDS011;13185;50.872;5.306;2024-02-04T04:20:52;4.63;;;3.00;;
25237;SDS011;13185;50.872;5.306;2024-02-04T04:23:18;5.53;;;2.80;;
25237;SDS011;13185;50.872;5.306;2024-02-04T04:25:43;3.63;;;2.92;;
25237;SDS011;13185;50.872;5.306;2024-02-04T04:28:09;4.63;;;3.30;;
25237;SDS011;13185;50.872;5.306;2024-02-04T04:30:34;3.53;;;2.70;;
25237;SDS011;13185;50.872;5.306;2024-02-04T04:33:00;4.85;;;3.53;;
25237;SDS011;13185;50.872;5.306;2024-02-04T04:35:25;3.42;;;3.08;;
25237;SDS011;13185;50.872;5.306;2024-02-04T04:37:51;5.60;;;2.90;;
25237;SDS011;13185;50.872;5.306;2024-02-04T04:40:17;5.38;;;3.03;;
25237;SDS011;13185;50.872;5.306;2024-02-04T04:42:43;4.85;;;2.92;;
25237;SDS011;13185;50.872;5.306;2024-02-04T04:45:08;4.78;;;3.50;;
25237;SDS011;13185;50.872;5.306;2024-02-04T04:47:36;5.13;;;2.92;;
25237;SDS011;13185;50.872;5.306;2024-02-04T04:50:01;5.65;;;3.70;;
25237;SDS011;13185;50.872;5.306;2024-02-04T04:52:27;5.38;;;3.60;;
25237;SDS011;13185;50.872;5.306;2024-02-04T04:54:52;6.60;;;3.13;;
25237;SDS011;13185;50.872;5.306;2024-02-04T04:57:18;3.85;;;3.28;;
25237;SDS011;13185;50.872;5.306;2024-02-04T04:59:44;5.80;;;3.63;;
25237;SDS011;13185;50.872;5.306;2024-02-04T05:02:09;5.35;;;3.78;;
25237;SDS011;13185;50.872;5.306;2024-02-04T05:04:36;5.65;;;3.90;;
25237;SDS011;13185;50.872;5.306;2024-02-04T05:07:01;4.18;;;3.60;;
25237;SDS011;13185;50.872;5.306;2024-02-04T05:09:27;3.97;;;3.28;;
25237;SDS011;13185;50.872;5.306;2024-02-04T05:11:52;6.15;;;3.40;;
25237;SDS011;13185;50.872;5.306;2024-02-04T05:14:18;5.78;;;3.53;;
25237;SDS011;13185;50.872;5.306;2024-02-04T05:16:45;4.72;;;3.20;;
25237;SDS011;13185;50.872;5.306;2024-02-04T05:19:11;5.13;;;2.83;;
25237;SDS011;13185;50.872;5.306;2024-02-04T05:21:40;5.00;;;2.65;;
25237;SDS011;13185;50.872;5.306;2024-02-04T05:24:05;4.88;;;3.03;;
25237;SDS011;13185;50.872;5.306;2024-02-04T05:26:31;3.38;;;2.90;;
25237;SDS011;13185;50.872;5.306;2024-02-04T05:28:57;3.35;;;2.80;;
25237;SDS011;13185;50.872;5.306;2024-02-04T05:31:22;3.25;;;2.78;;
25237;SDS011;13185;50.872;5.306;2024-02-04T05:33:48;3.00;;;2.65;;
25237;SDS011;13185;50.872;5.306;2024-02-04T05:36:13;4.22;;;2.40;;
25237;SDS011;13185;50.872;5.306;2024-02-04T05:38:39;3.03;;;2.50;;
25237;SDS011;13185;50.872;5.306;2024-02-04T05:41:07;2.33;;;2.13;;
25237;SDS011;13185;50.872;5.306;2024-02-04T05:43:33;2.88;;;2.33;;
25237;SDS011;13185;50.872;5.306;2024-02-04T05:45:58;2.50;;;2.13;;
25237;SDS011;13185;50.872;5.306;2024-02-04T05:48:24;2.13;;;1.92;;
25237;SDS011;13185;50.872;5.306;2024-02-04T05:50:49;3.53;;;2.30;;
25237;SDS011;13185;50.872;5.306;2024-02-04T05:53:15;2.75;;;2.08;;
25237;SDS011;13185;50.872;5.306;2024-02-04T05:55:40;2.67;;;2.10;;
25237;SDS011;13185;50.872;5.306;2024-02-04T05:58:06;2.65;;;2.08;;
25237;SDS011;13185;50.872;5.306;2024-02-04T06:00:31;2.35;;;2.15;;
25237;SDS011;13185;50.872;5.306;2024-02-04T06:02:57;2.72;;;2.17;;
25237;SDS011;13185;50.872;5.306;2024-02-04T06:05:23;4.90;;;2.10;;
25237;SDS011;13185;50.872;5.306;2024-02-04T06:07:48;3.25;;;1.77;;
25237;SDS011;13185;50.872;5.306;2024-02-04T06:10:14;2.38;;;2.05;;
25237;SDS011;13185;50.872;5.306;2024-02-04T06:12:39;2.05;;;1.85;;
25237;SDS011;13185;50.872;5.306;2024-02-04T06:15:13;2.88;;;2.10;;
25237;SDS011;13185;50.872;5.306;2024-02-04T06:17:39;3.42;;;2.30;;
25237;SDS011;13185;50.872;5.306;2024-02-04T06:20:05;2.60;;;2.20;;
25237;SDS011;13185;50.872;5.306;2024-02-04T06:22:31;3.40;;;2.45;;
25237;SDS011;13185;50.872;5.306;2024-02-04T06:24:57;4.68;;;2.00;;
25237;SDS011;13185;50.872;5.306;2024-02-04T06:27:22;3.08;;;2.58;;
25237;SDS011;13185;50.872;5.306;2024-02-04T06:29:48;4.75;;;2.35;;
25237;SDS011;13185;50.872;5.306;2024-02-04T06:32:13;3.25;;;2.40;;
25237;SDS011;13185;50.872;5.306;2024-02-04T06:34:39;2.80;;;2.17;;
25237;SDS011;13185;50.872;5.306;2024-02-04T06:37:05;3.05;;;2.30;;
25237;SDS011;13185;50.872;5.306;2024-02-04T06:39:30;4.53;;;2.30;;
25237;SDS011;13185;50.872;5.306;2024-02-04T06:41:56;3.80;;;2.53;;
25237;SDS011;13185;50.872;5.306;2024-02-04T06:44:21;6.28;;;2.28;;
25237;SDS011;13185;50.872;5.306;2024-02-04T06:46:46;6.07;;;2.40;;
25237;SDS011;13185;50.872;5.306;2024-02-04T06:49:13;4.05;;;2.75;;
25237;SDS011;13185;50.872;5.306;2024-02-04T06:51:43;4.40;;;2.55;;
25237;SDS011;13185;50.872;5.306;2024-02-04T06:54:09;3.05;;;2.72;;
25237;SDS011;13185;50.872;5.306;2024-02-04T06:56:35;3.20;;;2.50;;
25237;SDS011;13185;50.872;5.306;2024-02-04T06:59:02;5.25;;;2.83;;
25237;SDS011;13185;50.872;5.306;2024-02-04T07:01:27;4.57;;;3.35;;
25237;SDS011;13185;50.872;5.306;2024-02-04T07:03:53;3.28;;;2.97;;
25237;SDS011;13185;50.872;5.306;2024-02-04T07:06:18;5.30;;;3.05;;
25237;SDS011;13185;50.872;5.306;2024-02-04T07:08:44;9.65;;;3.45;;
25237;SDS011;13185;50.872;5.306;2024-02-04T07:11:09;4.60;;;3.00;;
25237;SDS011;13185;50.872;5.306;2024-02-04T07:13:35;4.95;;;2.65;;
25237;SDS011;13185;50.872;5.306;2024-02-04T07:16:00;5.55;;;2.60;;
25237;SDS011;13185;50.872;5.306;2024-02-04T07:18:26;6.43;;;2.58;;
25237;SDS011;13185;50.872;5.306;2024-02-04T07:20:51;4.53;;;2.78;;
25237;SDS011;13185;50.872;5.306;2024-02-04T07:23:17;4.45;;;2.50;;
25237;SDS011;13185;50.872;5.306;2024-02-04T07:25:42;4.00;;;2.67;;
25237;SDS011;13185;50.872;5.306;2024-02-04T07:28:08;3.88;;;2.50;;
25237;SDS011;13185;50.872;5.306;2024-02-04T07:30:34;4.43;;;2.58;;
25237;SDS011;13185;50.872;5.306;2024-02-04T07:32:59;3.83;;;3.22;;
25237;SDS011;13185;50.872;5.306;2024-02-04T07:35:25;4.57;;;2.83;;
25237;SDS011;13185;50.872;5.306;2024-02-04T07:37:50;6.03;;;3.03;;
25237;SDS011;13185;50.872;5.306;2024-02-04T07:40:16;3.50;;;2.55;;
25237;SDS011;13185;50.872;5.306;2024-02-04T07:42:41;5.10;;;2.88;;
25237;SDS011;13185;50.872;5.306;2024-02-04T07:45:07;3.55;;;2.58;;
25237;SDS011;13185;50.872;5.306;2024-02-04T07:47:35;3.15;;;2.65;;
25237;SDS011;13185;50.872;5.306;2024-02-04T07:50:01;2.42;;;2.05;;
25237;SDS011;13185;50.872;5.306;2024-02-04T07:52:26;3.15;;;2.38;;
25237;SDS011;13185;50.872;5.306;2024-02-04T07:54:52;3.28;;;2.08;;
25237;SDS011;13185;50.872;5.306;2024-02-04T07:57:17;2.83;;;2.28;;
25237;SDS011;13185;50.872;5.306;2024-02-04T07:59:43;3.60;;;2.17;;
25237;SDS011;13185;50.872;5.306;2024-02-04T08:02:08;4.28;;;2.38;;
25237;SDS011;13185;50.872;5.306;2024-02-04T08:04:33;3.80;;;2.92;;
25237;SDS011;13185;50.872;5.306;2024-02-04T08:06:59;4.25;;;2.08;;
25237;SDS011;13185;50.872;5.306;2024-02-04T08:09:25;3.90;;;2.13;;
25237;SDS011;13185;50.872;5.306;2024-02-04T08:11:51;3.75;;;1.98;;
25237;SDS011;13185;50.872;5.306;2024-02-04T08:14:16;5.80;;;2.47;;
25237;SDS011;13185;50.872;5.306;2024-02-04T08:16:42;3.40;;;2.40;;
25237;SDS011;13185;50.872;5.306;2024-02-04T08:19:08;2.70;;;1.98;;
25237;SDS011;13185;50.872;5.306;2024-02-04T08:21:34;3.67;;;2.28;;
25237;SDS011;13185;50.872;5.306;2024-02-04T08:23:59;4.40;;;2.35;;
25237;SDS011;13185;50.872;5.306;2024-02-04T08:26:25;6.57;;;2.78;;
25237;SDS011;13185;50.872;5.306;2024-02-04T08:28:50;6.75;;;2.80;;
25237;SDS011;13185;50.872;5.306;2024-02-04T08:31:16;5.63;;;2.83;;
25237;SDS011;13185;50.872;5.306;2024-02-04T08:33:41;4.13;;;3.00;;
25237;SDS011;13185;50.872;5.306;2024-02-04T08:36:07;6.82;;;3.30;;
25237;SDS011;13185;50.872;5.306;2024-02-04T08:38:35;5.13;;;3.20;;
25237;SDS011;13185;50.872;5.306;2024-02-04T08:41:02;6.30;;;3.80;;
25237;SDS011;13185;50.872;5.306;2024-02-04T08:43:28;7.90;;;3.97;;
25237;SDS011;13185;50.872;5.306;2024-02-04T08:45:53;5.22;;;3.60;;
25237;SDS011;13185;50.872;5.306;2024-02-04T08:48:19;5.97;;;4.00;;
25237;SDS011;13185;50.872;5.306;2024-02-04T08:50:44;7.68;;;4.45;;
25237;SDS011;13185;50.872;5.306;2024-02-04T08:53:10;6.07;;;3.72;;
25237;SDS011;13185;50.872;5.306;2024-02-04T08:55:35;7.07;;;4.03;;
25237;SDS011;13185;50.872;5.306;2024-02-04T08:58:01;8.20;;;4.35;;
25237;SDS011;13185;50.872;5.306;2024-02-04T09:00:26;8.60;;;4.03;;
25237;SDS011;13185;50.872;5.306;2024-02-04T09:02:52;6.28;;;4.28;;
25237;SDS011;13185;50.872;5.306;2024-02-04T09:05:17;7.00;;;4.47;;
25237;SDS011;13185;50.872;5.306;2024-02-04T09:07:43;7.07;;;4.55;;
25237;SDS011;13185;50.872;5.306;2024-02-04T09:10:09;8.63;;;5.15;;
25237;SDS011;13185;50.872;5.306;2024-02-04T09:12:34;6.88;;;4.35;;
25237;SDS011;13185;50.872;5.306;2024-02-04T09:15:00;7.53;;;4.35;;
25237;SDS011;13185;50.872;5.306;2024-02-04T09:17:26;9.25;;;4.55;;
25237;SDS011;13185;50.872;5.306;2024-02-04T09:19:51;8.10;;;4.70;;
25237;SDS011;13185;50.872;5.306;2024-02-04T09:22:18;7.10;;;4.20;;
25237;SDS011;13185;50.872;5.306;2024-02-04T09:24:43;7.47;;;4.43;;
25237;SDS011;13185;50.872;5.306;2024-02-04T09:27:09;5.05;;;3.70;;
25237;SDS011;13185;50.872;5.306;2024-02-04T09:29:34;8.80;;;4.00;;
25237;SDS011;13185;50.872;5.306;2024-02-04T09:32:00;7.13;;;3.60;;
25237;SDS011;13185;50.872;5.306;2024-02-04T09:34:25;8.02;;;3.90;;
25237;SDS011;13185;50.872;5.306;2024-02-04T09:36:51;8.18;;;3.47;;
25237;SDS011;13185;50.872;5.306;2024-02-04T09:39:18;8.40;;;3.80;;
25237;SDS011;13185;50.872;5.306;2024-02-04T09:41:44;7.82;;;4.03;;
25237;SDS011;13185;50.872;5.306;2024-02-04T09:44:09;6.88;;;3.65;;
25237;SDS011;13185;50.872;5.306;2024-02-04T09:46:37;6.05;;;3.17;;
25237;SDS011;13185;50.872;5.306;2024-02-04T09:49:02;5.10;;;3.60;;
25237;SDS011;13185;50.872;5.306;2024-02-04T09:51:29;4.43;;;3.20;;
25237;SDS011;13185;50.872;5.306;2024-02-04T09:53:54;7.07;;;3.35;;
25237;SDS011;13185;50.872;5.306;2024-02-04T09:56:27;4.80;;;2.73;;
25237;SDS011;13185;50.872;5.306;2024-02-04T09:58:54;5.40;;;2.95;;
25237;SDS011;13185;50.872;5.306;2024-02-04T10:01:21;8.40;;;3.45;;
25237;SDS011;13185;50.872;5.306;2024-02-04T10:03:48;7.60;;;3.20;;
25237;SDS011;13185;50.872;5.306;2024-02-04T10:06:14;6.00;;;3.00;;
25237;SDS011;13185;50.872;5.306;2024-02-04T10:08:39;7.32;;;2.92;;
25237;SDS011;13185;50.872;5.306;2024-02-04T10:11:05;3.55;;;2.65;;
25237;SDS011;13185;50.872;5.306;2024-02-04T10:13:41;4.70;;;2.75;;
25237;SDS011;13185;50.872;5.306;2024-02-04T10:16:16;5.00;;;3.17;;
25237;SDS011;13185;50.872;5.306;2024-02-04T10:18:42;4.28;;;2.50;;
25237;SDS011;13185;50.872;5.306;2024-02-04T10:21:19;4.53;;;2.20;;
25237;SDS011;13185;50.872;5.306;2024-02-04T10:23:49;5.38;;;1.98;;
25237;SDS011;13185;50.872;5.306;2024-02-04T10:26:16;2.40;;;1.70;;
25237;SDS011;13185;50.872;5.306;2024-02-04T10:28:45;4.90;;;2.30;;
25237;SDS011;13185;50.872;5.306;2024-02-04T10:31:12;4.93;;;1.70;;
25237;SDS011;13185;50.872;5.306;2024-02-04T10:33:39;4.57;;;2.05;;
25237;SDS011;13185;50.872;5.306;2024-02-04T10:36:05;3.72;;;1.58;;
25237;SDS011;13185;50.872;5.306;2024-02-04T10:38:31;4.50;;;1.85;;
25237;SDS011;13185;50.872;5.306;2024-02-04T10:40:59;3.53;;;1.45;;
25237;SDS011;13185;50.872;5.306;2024-02-04T10:43:28;1.88;;;1.10;;
25237;SDS011;13185;50.872;5.306;2024-02-04T10:46:20;3.00;;;1.60;;
25237;SDS011;13185;50.872;5.306;2024-02-04T10:48:48;5.53;;;1.75;;
25237;SDS011;13185;50.872;5.306;2024-02-04T10:51:21;3.00;;;1.30;;
25237;SDS011;13185;50.872;5.306;2024-02-04T10:53:51;2.20;;;1.08;;
25237;SDS011;13185;50.872;5.306;2024-02-04T10:58:57;3.70;;;1.30;;
25237;SDS011;13185;50.872;5.306;2024-02-04T11:01:25;6.30;;;1.75;;
25237;SDS011;13185;50.872;5.306;2024-02-04T11:03:51;1.85;;;1.23;;
25237;SDS011;13185;50.872;5.306;2024-02-04T11:06:18;2.38;;;1.40;;
25237;SDS011;13185;50.872;5.306;2024-02-04T11:08:46;3.70;;;1.38;;
25237;SDS011;13185;50.872;5.306;2024-02-04T11:11:12;4.40;;;1.80;;
25237;SDS011;13185;50.872;5.306;2024-02-04T11:13:38;3.10;;;1.85;;
25237;SDS011;13185;50.872;5.306;2024-02-04T11:16:08;2.65;;;1.90;;
25237;SDS011;13185;50.872;5.306;2024-02-04T11:21:45;4.40;;;2.08;;
25237;SDS011;13185;50.872;5.306;2024-02-04T11:27:18;4.22;;;1.60;;
25237;SDS011;13185;50.872;5.306;2024-02-04T11:29:44;2.92;;;1.60;;
25237;SDS011;13185;50.872;5.306;2024-02-04T11:32:10;4.68;;;1.70;;
25237;SDS011;13185;50.872;5.306;2024-02-04T11:34:37;3.90;;;1.50;;
25237;SDS011;13185;50.872;5.306;2024-02-04T11:37:14;2.97;;;1.50;;
25237;SDS011;13185;50.872;5.306;2024-02-04T11:39:54;5.22;;;1.65;;
25237;SDS011;13185;50.872;5.306;2024-02-04T11:42:23;3.53;;;1.88;;
25237;SDS011;13185;50.872;5.306;2024-02-04T11:44:49;10.55;;;1.83;;
25237;SDS011;13185;50.872;5.306;2024-02-04T11:47:24;1.67;;;1.40;;
25237;SDS011;13185;50.872;5.306;2024-02-04T11:49:54;3.22;;;1.50;;
25237;SDS011;13185;50.872;5.306;2024-02-04T11:52:20;2.15;;;1.23;;
25237;SDS011;13185;50.872;5.306;2024-02-04T11:54:46;2.38;;;1.17;;
25237;SDS011;13185;50.872;5.306;2024-02-04T11:57:12;2.75;;;1.15;;
25237;SDS011;13185;50.872;5.306;2024-02-04T11:59:40;2.55;;;1.30;;
25237;SDS011;13185;50.872;5.306;2024-02-04T12:02:07;2.60;;;1.75;;
25237;SDS011;13185;50.872;5.306;2024-02-04T12:04:33;3.92;;;1.27;;
25237;SDS011;13185;50.872;5.306;2024-02-04T12:06:59;1.80;;;1.00;;
25237;SDS011;13185;50.872;5.306;2024-02-04T12:09:28;1.52;;;1.10;;
25237;SDS011;13185;50.872;5.306;2024-02-04T12:11:57;1.98;;;1.23;;
25237;SDS011;13185;50.872;5.306;2024-02-04T12:14:23;3.92;;;1.20;;
25237;SDS011;13185;50.872;5.306;2024-02-04T12:16:48;6.53;;;1.63;;
25237;SDS011;13185;50.872;5.306;2024-02-04T12:19:14;2.80;;;1.10;;
25237;SDS011;13185;50.872;5.306;2024-02-04T12:21:39;3.20;;;1.30;;
25237;SDS011;13185;50.872;5.306;2024-02-04T12:24:05;1.20;;;1.10;;
25237;SDS011;13185;50.872;5.306;2024-02-04T12:26:32;2.47;;;1.05;;
25237;SDS011;13185;50.872;5.306;2024-02-04T12:28:59;1.45;;;0.80;;
25237;SDS011;13185;50.872;5.306;2024-02-04T12:31:26;1.63;;;1.05;;
25237;SDS011;13185;50.872;5.306;2024-02-04T12:33:57;1.92;;;1.00;;
25237;SDS011;13185;50.872;5.306;2024-02-04T12:36:25;1.35;;;0.95;;
25237;SDS011;13185;50.872;5.306;2024-02-04T12:38:54;3.78;;;1.20;;
25237;SDS011;13185;50.872;5.306;2024-02-04T12:41:23;2.67;;;0.80;;
25237;SDS011;13185;50.872;5.306;2024-02-04T12:43:50;2.20;;;1.38;;
25237;SDS011;13185;50.872;5.306;2024-02-04T12:46:20;2.25;;;0.88;;
25237;SDS011;13185;50.872;5.306;2024-02-04T12:48:53;2.35;;;1.05;;
25237;SDS011;13185;50.872;5.306;2024-02-04T12:51:26;2.25;;;0.90;;
25237;SDS011;13185;50.872;5.306;2024-02-04T12:54:05;2.50;;;0.80;;
25237;SDS011;13185;50.872;5.306;2024-02-04T12:56:46;1.30;;;1.00;;
25237;SDS011;13185;50.872;5.306;2024-02-04T12:59:22;2.70;;;0.88;;
25237;SDS011;13185;50.872;5.306;2024-02-04T13:01:59;1.00;;;0.90;;
25237;SDS011;13185;50.872;5.306;2024-02-04T13:04:38;1.73;;;0.70;;
25237;SDS011;13185;50.872;5.306;2024-02-04T13:07:12;2.60;;;0.80;;
25237;SDS011;13185;50.872;5.306;2024-02-04T13:09:43;1.05;;;0.95;;
25237;SDS011;13185;50.872;5.306;2024-02-04T13:12:10;1.90;;;0.80;;
25237;SDS011;13185;50.872;5.306;2024-02-04T13:14:39;2.30;;;0.90;;
25237;SDS011;13185;50.872;5.306;2024-02-04T13:17:06;1.92;;;1.17;;
25237;SDS011;13185;50.872;5.306;2024-02-04T13:19:33;4.28;;;1.20;;
25237;SDS011;13185;50.872;5.306;2024-02-04T13:21:59;1.77;;;1.23;;
25237;SDS011;13185;50.872;5.306;2024-02-04T13:24:25;2.00;;;0.90;;
25237;SDS011;13185;50.872;5.306;2024-02-04T13:26:57;1.23;;;1.10;;
25237;SDS011;13185;50.872;5.306;2024-02-04T13:29:29;3.55;;;1.00;;
25237;SDS011;13185;50.872;5.306;2024-02-04T13:31:55;1.10;;;0.90;;
25237;SDS011;13185;50.872;5.306;2024-02-04T13:34:21;1.17;;;0.98;;
25237;SDS011;13185;50.872;5.306;2024-02-04T13:36:46;1.27;;;0.90;;
25237;SDS011;13185;50.872;5.306;2024-02-04T13:39:12;1.60;;;0.90;;
25237;SDS011;13185;50.872;5.306;2024-02-04T13:41:38;1.38;;;0.93;;
25237;SDS011;13185;50.872;5.306;2024-02-04T13:44:04;1.02;;;0.80;;
25237;SDS011;13185;50.872;5.306;2024-02-04T13:46:30;2.85;;;0.95;;
25237;SDS011;13185;50.872;5.306;2024-02-04T13:48:56;1.58;;;0.88;;
25237;SDS011;13185;50.872;5.306;2024-02-04T13:51:21;1.63;;;0.80;;
25237;SDS011;13185;50.872;5.306;2024-02-04T13:53:47;1.15;;;0.93;;
25237;SDS011;13185;50.872;5.306;2024-02-04T13:56:13;0.85;;;0.80;;
25237;SDS011;13185;50.872;5.306;2024-02-04T13:58:38;0.95;;;0.80;;
25237;SDS011;13185;50.872;5.306;2024-02-04T14:01:04;1.15;;;1.02;;
25237;SDS011;13185;50.872;5.306;2024-02-04T14:03:31;0.70;;;0.70;;
25237;SDS011;13185;50.872;5.306;2024-02-04T14:05:57;1.20;;;0.80;;
25237;SDS011;13185;50.872;5.306;2024-02-04T14:08:22;1.88;;;0.80;;
25237;SDS011;13185;50.872;5.306;2024-02-04T14:10:48;0.90;;;0.60;;
25237;SDS011;13185;50.872;5.306;2024-02-04T14:13:13;0.90;;;0.68;;
25237;SDS011;13185;50.872;5.306;2024-02-04T14:15:39;0.90;;;0.52;;
25237;SDS011;13185;50.872;5.306;2024-02-04T14:18:05;0.98;;;0.70;;
25237;SDS011;13185;50.872;5.306;2024-02-04T14:20:30;0.88;;;0.60;;
25237;SDS011;13185;50.872;5.306;2024-02-04T14:22:56;1.45;;;0.50;;
25237;SDS011;13185;50.872;5.306;2024-02-04T14:25:23;0.55;;;0.50;;
25237;SDS011;13185;50.872;5.306;2024-02-04T14:27:49;2.45;;;0.47;;
25237;SDS011;13185;50.872;5.306;2024-02-04T14:30:15;0.90;;;0.60;;
25237;SDS011;13185;50.872;5.306;2024-02-04T14:32:41;0.90;;;0.70;;
25237;SDS011;13185;50.872;5.306;2024-02-04T14:35:07;1.58;;;0.55;;
25237;SDS011;13185;50.872;5.306;2024-02-04T14:37:37;0.63;;;0.60;;
25237;SDS011;13185;50.872;5.306;2024-02-04T14:40:05;0.75;;;0.63;;
25237;SDS011;13185;50.872;5.306;2024-02-04T14:42:32;0.43;;;0.40;;
25237;SDS011;13185;50.872;5.306;2024-02-04T14:44:58;0.52;;;0.47;;
25237;SDS011;13185;50.872;5.306;2024-02-04T14:47:25;1.35;;;0.80;;
25237;SDS011;13185;50.872;5.306;2024-02-04T14:49:54;1.80;;;0.60;;
25237;SDS011;13185;50.872;5.306;2024-02-04T14:52:20;1.10;;;0.77;;
25237;SDS011;13185;50.872;5.306;2024-02-04T14:54:46;1.10;;;0.70;;
25237;SDS011;13185;50.872;5.306;2024-02-04T14:57:12;1.10;;;0.70;;